Time;durP1;ratioP1;P1;durP2;ratioP2;P2;SDS_P1;SDS_P2;PMS_P1;PMS_P2;Temp;Humidity;BMP_temperature;BMP_pressure;BME280_temperature;BME280_humidity;BME280_pressure;Samples;Min_cycle;Max_cycle;Signal;HPM_P1;HPM_P2
2020/12/26 00:00:49;;;;;;;31.45;14.48;;;;;;;4.20;85.02;98648.94;5073650;28;20020;-72
2020/12/26 00:03:14;;;;;;;42.00;13.77;;;;;;;4.09;84.72;98628.63;5073678;28;20105;-72
2020/12/26 00:05:40;;;;;;;28.70;13.30;;;;;;;4.17;85.37;98649.41;5089201;28;20017;-72
2020/12/26 00:08:05;;;;;;;39.40;13.30;;;;;;;4.14;85.07;98641.97;5073582;28;20123;-72
2020/12/26 00:10:31;;;;;;;47.70;12.70;;;;;;;4.13;85.38;98635.84;5073791;28;20064;-72
2020/12/26 00:12:57;;;;;;;37.80;13.27;;;;;;;4.12;85.88;98639.53;5071883;28;20499;-71
2020/12/26 00:15:22;;;;;;;44.90;13.02;;;;;;;4.11;85.41;98651.19;5073488;28;20035;-71
2020/12/26 00:17:47;;;;;;;45.30;12.82;;;;;;;4.10;85.92;98639.00;5073173;28;20035;-71
2020/12/26 00:20:13;;;;;;;31.38;12.13;;;;;;;4.12;86.41;98657.28;5073176;28;20395;-71
2020/12/26 00:22:38;;;;;;;40.38;13.18;;;;;;;4.13;86.40;98656.22;5071724;28;20028;-71
2020/12/26 00:25:04;;;;;;;49.83;13.20;;;;;;;4.11;85.82;98650.38;5072743;28;20116;-72
2020/12/26 00:27:30;;;;;;;33.17;10.82;;;;;;;4.17;85.84;98657.34;5073474;28;20025;-72
2020/12/26 00:29:55;;;;;;;32.38;11.95;;;;;;;4.19;85.95;98659.72;5071602;28;20025;-72
2020/12/26 00:32:22;;;;;;;25.88;11.50;;;;;;;4.15;86.15;98648.81;5072830;28;20028;-72
2020/12/26 00:34:47;;;;;;;36.40;12.88;;;;;;;4.15;86.10;98649.66;5071437;28;20045;-73
2020/12/26 00:37:18;;;;;;;34.28;12.95;;;;;;;4.26;86.27;98647.94;5073260;28;20479;-73
2020/12/26 00:39:44;;;;;;;35.67;12.68;;;;;;;4.21;85.97;98637.28;5072607;28;20444;-71
2020/12/26 00:42:09;;;;;;;26.20;12.82;;;;;;;4.29;85.95;98650.09;5071348;28;20113;-73
2020/12/26 00:44:35;;;;;;;50.90;13.23;;;;;;;4.25;85.77;98648.19;5071290;28;20024;-73
2020/12/26 00:47:00;;;;;;;33.65;12.07;;;;;;;4.29;85.49;98668.63;5072618;28;20135;-73
2020/12/26 00:49:26;;;;;;;29.80;13.57;;;;;;;4.27;85.93;98664.63;5073123;28;20071;-72
2020/12/26 00:51:51;;;;;;;39.42;12.20;;;;;;;4.27;84.93;98664.63;5072741;28;20032;-72
2020/12/26 00:54:16;;;;;;;25.48;11.85;;;;;;;4.27;85.77;98661.97;5072479;28;20505;-72
2020/12/26 00:56:42;;;;;;;53.08;12.90;;;;;;;4.23;85.41;98663.50;5072631;28;20024;-72
2020/12/26 00:59:07;;;;;;;38.40;12.50;;;;;;;4.15;86.19;98643.53;5087815;28;20033;-72
2020/12/26 01:01:32;;;;;;;36.00;11.95;;;;;;;4.23;85.70;98664.31;5088067;28;20111;-72
2020/12/26 01:03:58;;;;;;;32.55;12.77;;;;;;;4.25;85.78;98672.81;5071954;28;20059;-72
2020/12/26 01:06:23;;;;;;;55.92;13.23;;;;;;;4.26;85.69;98670.94;5072447;28;20471;-72
2020/12/26 01:08:49;;;;;;;30.17;12.02;;;;;;;4.13;85.85;98659.66;5071802;28;20510;-72
2020/12/26 01:11:14;;;;;;;25.55;12.57;;;;;;;4.20;86.00;98671.94;5071062;28;20040;-73
2020/12/26 01:13:39;;;;;;;28.83;12.52;;;;;;;4.22;85.90;98660.06;5072227;28;20535;-73
2020/12/26 01:16:05;;;;;;;64.38;14.50;;;;;;;4.24;85.98;98665.91;5087234;28;20067;-72
2020/12/26 01:18:30;;;;;;;29.55;12.02;;;;;;;4.30;86.01;98675.53;5070708;28;20033;-72
2020/12/26 01:20:56;;;;;;;27.27;12.48;;;;;;;4.35;85.87;98671.38;5071875;28;20099;-72
2020/12/26 01:23:23;;;;;;;33.72;11.63;;;;;;;4.30;86.04;98664.94;5072083;28;20107;-72
2020/12/26 01:25:51;;;;;;;43.05;11.88;;;;;;;4.26;85.41;98660.38;5070644;28;20058;-73
2020/12/26 01:28:17;;;;;;;46.45;11.27;;;;;;;4.31;85.63;98673.69;5071972;28;20146;-73
2020/12/26 01:30:43;;;;;;;25.95;11.57;;;;;;;4.29;85.93;98662.53;5071936;28;20024;-72
2020/12/26 01:33:08;;;;;;;26.75;11.20;;;;;;;4.29;85.85;98659.88;5071273;28;20040;-73
2020/12/26 01:35:34;;;;;;;28.13;11.60;;;;;;;4.32;86.02;98667.34;5071592;28;20024;-73
2020/12/26 01:37:59;;;;;;;34.97;10.20;;;;;;;4.32;85.88;98657.56;5070163;28;20051;-72
2020/12/26 01:40:25;;;;;;;27.45;10.48;;;;;;;4.25;85.77;98664.88;5071697;28;20455;-73
2020/12/26 01:42:50;;;;;;;31.38;10.35;;;;;;;4.29;86.11;98671.28;5071665;28;20119;-73
2020/12/26 01:45:15;;;;;;;29.10;9.43;;;;;;;4.25;85.99;98634.97;5071725;28;20467;-73
2020/12/26 01:47:41;;;;;;;29.65;11.43;;;;;;;4.29;86.40;98667.84;5071637;28;20031;-72
2020/12/26 01:50:06;;;;;;;42.28;11.32;;;;;;;4.25;85.95;98651.63;5070357;28;20036;-72
2020/12/26 01:52:33;;;;;;;22.30;9.50;;;;;;;4.26;86.08;98665.66;5070193;28;20036;-72
2020/12/26 01:54:59;;;;;;;27.92;11.02;;;;;;;4.23;86.25;98666.94;5069969;28;20111;-72
2020/12/26 01:57:33;;;;;;;19.88;10.43;;;;;;;4.16;86.13;98640.66;5071775;28;20127;-72
2020/12/26 01:59:59;;;;;;;20.23;11.48;;;;;;;4.18;86.19;98648.34;5069703;28;20024;-71
2020/12/26 02:02:25;;;;;;;27.73;12.02;;;;;;;4.23;86.15;98651.06;5069940;28;20021;-71
2020/12/26 02:04:50;;;;;;;26.77;10.95;;;;;;;4.21;85.84;98650.53;5071360;28;20029;-71
2020/12/26 02:07:15;;;;;;;26.40;12.23;;;;;;;4.26;86.05;98655.88;5070702;28;20111;-71
2020/12/26 02:09:41;;;;;;;22.15;10.32;;;;;;;4.26;85.40;98645.31;5069984;28;20490;-71
2020/12/26 02:12:06;;;;;;;20.08;10.85;;;;;;;4.25;85.67;98649.00;5070689;28;20484;-71
2020/12/26 02:14:32;;;;;;;20.92;10.85;;;;;;;4.26;85.64;98645.31;5069811;28;20055;-71
2020/12/26 02:16:57;;;;;;;26.67;10.50;;;;;;;4.28;85.57;98637.09;5069711;28;20245;-71
2020/12/26 02:19:25;;;;;;;29.40;10.63;;;;;;;4.27;85.52;98640.78;5071101;28;20039;-71
2020/12/26 02:21:50;;;;;;;24.40;11.13;;;;;;;4.28;85.79;98648.47;5069787;28;20024;-71
2020/12/26 02:24:16;;;;;;;22.92;11.98;;;;;;;4.31;85.87;98648.00;5069535;28;20089;-71
2020/12/26 02:26:41;;;;;;;25.27;12.15;;;;;;;4.33;86.18;98653.88;5070809;28;20032;-71
2020/12/26 02:29:07;;;;;;;23.58;12.05;;;;;;;4.35;85.77;98650.97;5071074;28;20036;-71
2020/12/26 02:31:33;;;;;;;23.90;10.70;;;;;;;4.33;85.70;98640.63;5071029;28;20553;-71
2020/12/26 02:33:59;;;;;;;27.67;12.68;;;;;;;4.41;85.62;98649.19;5069251;28;20048;-71
2020/12/26 02:36:25;;;;;;;27.92;11.30;;;;;;;4.45;85.73;98661.69;5070947;28;20024;-71
2020/12/26 02:38:50;;;;;;;27.92;12.10;;;;;;;4.47;85.73;98658.81;5070877;28;20099;-71
2020/12/26 02:41:16;;;;;;;27.77;11.52;;;;;;;4.48;85.08;98663.06;5070347;28;20036;-71
2020/12/26 02:43:41;;;;;;;41.17;11.13;;;;;;;4.40;84.45;98650.25;5070830;28;20040;-70
2020/12/26 02:46:07;;;;;;;24.45;11.15;;;;;;;4.37;85.16;98653.38;5070435;28;20104;-73
2020/12/26 02:48:32;;;;;;;22.13;11.18;;;;;;;4.29;85.15;98647.44;5070836;28;20032;-73
2020/12/26 02:50:58;;;;;;;21.35;10.98;;;;;;;4.29;85.19;98657.25;5070351;28;20060;-73
2020/12/26 02:53:24;;;;;;;26.52;10.55;;;;;;;4.30;84.85;98653.56;5070866;28;20028;-71
2020/12/26 02:55:50;;;;;;;36.22;12.27;;;;;;;4.22;84.74;98640.72;5071028;28;20032;-71
2020/12/26 02:58:15;;;;;;;25.25;11.65;;;;;;;4.23;85.01;98653.72;5070570;28;20533;-71
2020/12/26 03:00:41;;;;;;;26.25;11.75;;;;;;;4.22;84.90;98662.69;5070688;28;20498;-71
2020/12/26 03:03:07;;;;;;;29.40;11.40;;;;;;;4.24;84.82;98667.78;5074110;28;20533;-71
2020/12/26 03:05:32;;;;;;;28.20;12.20;;;;;;;4.21;84.97;98661.13;5074466;28;20035;-70
2020/12/26 03:07:58;;;;;;;28.67;11.57;;;;;;;4.16;84.98;98672.44;5073102;28;20296;-71
2020/12/26 03:10:23;;;;;;;20.58;10.95;;;;;;;4.18;85.42;98674.03;5074643;28;20062;-71
2020/12/26 03:12:49;;;;;;;22.38;12.18;;;;;;;4.14;85.27;98692.25;5074532;28;20024;-71
2020/12/26 03:15:15;;;;;;;21.90;11.50;;;;;;;4.09;85.16;98674.44;5072918;28;20078;-71
2020/12/26 03:17:40;;;;;;;27.00;11.95;;;;;;;4.09;85.11;98661.22;5074731;28;20021;-71
2020/12/26 03:20:06;;;;;;;36.63;16.63;;;;;;;4.04;85.05;98642.63;5073702;28;20043;-71
2020/12/26 03:22:32;;;;;;;28.65;12.45;;;;;;;4.11;85.23;98653.03;5073115;28;20115;-71
2020/12/26 03:24:58;;;;;;;26.17;13.68;;;;;;;4.13;85.34;98650.94;5074086;28;20028;-71
2020/12/26 03:27:24;;;;;;;28.58;11.85;;;;;;;4.13;85.18;98656.22;5074296;28;20033;-71
2020/12/26 03:29:50;;;;;;;41.90;13.27;;;;;;;4.17;85.08;98667.91;5074705;28;20039;-71
2020/12/26 03:32:17;;;;;;;25.98;12.57;;;;;;;4.11;84.36;98675.00;5073968;28;20137;-71
2020/12/26 03:34:42;;;;;;;24.38;11.82;;;;;;;4.08;84.13;98674.69;5074210;28;20098;-71
2020/12/26 03:37:08;;;;;;;24.65;12.00;;;;;;;4.01;84.47;98680.13;5073893;28;20032;-73
2020/12/26 03:39:36;;;;;;;24.05;12.48;;;;;;;3.97;84.56;98677.16;5072756;28;20082;-73
2020/12/26 03:42:06;;;;;;;24.70;12.70;;;;;;;3.81;84.83;98662.13;5073896;28;20024;-73
2020/12/26 03:44:32;;;;;;;20.60;11.82;;;;;;;3.88;84.91;98669.88;5074313;28;20032;-73
2020/12/26 03:46:58;;;;;;;26.75;11.85;;;;;;;3.82;84.54;98661.06;5073498;28;20062;-73
2020/12/26 03:49:24;;;;;;;26.38;13.40;;;;;;;3.83;84.89;98675.88;5074288;28;20099;-73
2020/12/26 03:51:50;;;;;;;28.10;13.45;;;;;;;3.80;85.07;98663.94;5073879;28;20032;-71
2020/12/26 03:54:16;;;;;;;48.55;13.98;;;;;;;3.88;84.70;98667.22;5073921;28;20036;-71
2020/12/26 03:56:42;;;;;;;43.67;20.10;;;;;;;3.85;85.03;98673.81;5072440;28;20024;-71
2020/12/26 03:59:08;;;;;;;37.70;15.45;;;;;;;3.89;85.29;98680.22;5073444;28;20067;-71
2020/12/26 04:01:34;;;;;;;34.05;14.70;;;;;;;3.92;85.28;98681.56;5073444;28;20056;-71
2020/12/26 04:03:59;;;;;;;27.63;13.68;;;;;;;3.92;85.36;98673.63;5072086;28;20024;-71
2020/12/26 04:06:24;;;;;;;35.55;14.02;;;;;;;3.94;85.15;98676.84;5073895;28;20471;-73
2020/12/26 04:08:50;;;;;;;29.23;13.85;;;;;;;3.94;84.79;98674.19;5089145;28;20077;-72
2020/12/26 04:11:15;;;;;;;29.55;14.15;;;;;;;3.95;84.86;98679.25;5073250;28;20498;-72
2020/12/26 04:13:40;;;;;;;36.85;16.05;;;;;;;3.95;84.36;98689.81;5071522;28;20028;-71
2020/12/26 04:16:12;;;;;;;32.78;14.65;;;;;;;3.95;84.61;98687.19;5088479;28;20039;-71
2020/12/26 04:18:38;;;;;;;31.08;13.75;;;;;;;3.89;84.85;98666.97;5072056;28;20024;-71
2020/12/26 04:21:04;;;;;;;36.28;13.85;;;;;;;3.95;83.96;98683.75;5071744;28;20028;-71
2020/12/26 04:23:29;;;;;;;47.53;14.45;;;;;;;3.91;83.91;98683.44;5072988;28;20513;-71
2020/12/26 04:25:54;;;;;;;30.83;13.00;;;;;;;3.87;83.96;98682.31;5071973;28;20028;-71
2020/12/26 04:28:20;;;;;;;29.95;13.85;;;;;;;3.81;83.89;98681.41;5073266;28;20087;-71
2020/12/26 04:30:45;;;;;;;35.30;15.40;;;;;;;3.78;83.86;98671.31;5073093;28;20108;-71
2020/12/26 04:33:11;;;;;;;29.42;15.15;;;;;;;3.72;84.38;98653.75;5072622;28;20052;-72
2020/12/26 04:35:36;;;;;;;30.10;14.00;;;;;;;3.77;84.68;98669.72;5071547;28;20035;-71
2020/12/26 04:38:02;;;;;;;41.00;15.00;;;;;;;3.75;84.24;98670.97;5071479;28;20111;-71
2020/12/26 04:40:27;;;;;;;41.72;14.93;;;;;;;3.75;84.69;98676.28;5072688;28;20078;-71
2020/12/26 04:42:56;;;;;;;32.17;15.00;;;;;;;3.75;85.03;98671.81;5071687;28;20024;-71
2020/12/26 04:45:21;;;;;;;;;;;;;;;3.76;85.00;98672.59;5073192;28;20071;-71
2020/12/26 04:47:55;;;;;;;45.15;14.63;;;;;;;3.74;84.52;98688.72;5073140;28;19955;-71
2020/12/26 04:50:26;;;;;;;43.13;15.70;;;;;;;3.67;84.42;98685.41;5072540;28;20028;-71
2020/12/26 04:52:57;;;;;;;31.67;14.38;;;;;;;3.75;85.30;98702.72;5072712;28;20064;-71
2020/12/26 04:55:26;;;;;;;31.58;14.82;;;;;;;3.69;85.09;98683.34;5072430;28;20115;-71
2020/12/26 04:57:52;;;;;;;29.05;14.93;;;;;;;3.71;85.19;98681.28;5071336;28;20430;-71
2020/12/26 05:00:19;;;;;;;41.67;15.43;;;;;;;3.74;85.31;98685.28;5071021;28;20025;-71
2020/12/26 05:02:48;;;;;;;46.00;17.30;;;;;;;3.81;85.40;98685.94;5071225;28;20120;-71
2020/12/26 05:05:15;;;;;;;37.90;16.10;;;;;;;3.83;85.23;98689.94;5071015;28;20066;-72
2020/12/26 05:07:40;;;;;;;54.40;15.70;;;;;;;3.85;85.53;98694.97;5072691;28;20467;-71
2020/12/26 05:10:05;;;;;;;56.33;15.00;;;;;;;3.82;85.25;98687.50;5072216;28;20040;-71
2020/12/26 05:12:31;;;;;;;42.58;16.45;;;;;;;3.82;85.10;98692.78;5072622;28;20116;-71
2020/12/26 05:15:00;;;;;;;50.28;17.00;;;;;;;3.87;85.19;98700.84;5072353;28;20028;-71
2020/12/26 05:17:26;;;;;;;43.60;18.08;;;;;;;3.88;85.50;98699.75;5072056;28;20032;-71
2020/12/26 05:19:52;;;;;;;52.78;16.75;;;;;;;3.88;85.03;98702.41;5071906;28;20032;-71
2020/12/26 05:22:18;;;;;;;52.20;17.83;;;;;;;3.85;85.21;98706.34;5071684;28;20032;-71
2020/12/26 05:24:45;;;;;;;45.42;16.25;;;;;;;3.84;84.64;98707.41;5086898;28;20031;-71
2020/12/26 05:27:10;;;;;;;59.28;17.42;;;;;;;3.80;85.13;98689.59;5070338;28;20027;-71
2020/12/26 05:29:38;;;;;;;46.17;17.60;;;;;;;3.83;85.18;98691.75;5071782;28;20407;-71
2020/12/26 05:32:04;;;;;;;37.88;18.45;;;;;;;3.75;84.74;98679.75;5070408;28;20029;-71
2020/12/26 05:34:39;;;;;;;60.70;20.02;;;;;;;3.74;84.93;98690.56;5071986;28;20438;-71
2020/12/26 05:37:06;;;;;;;40.10;16.80;;;;;;;3.76;85.35;98699.03;5071669;28;20024;-71
2020/12/26 05:39:36;;;;;;;38.90;16.42;;;;;;;3.74;85.10;98706.44;5071332;28;20434;-71
2020/12/26 05:42:03;;;;;;;69.55;17.27;;;;;;;3.72;84.88;98697.94;5070451;28;20518;-71
2020/12/26 05:44:30;;;;;;;57.83;18.30;;;;;;;3.69;84.80;98704.50;5071487;28;20025;-71
2020/12/26 05:47:01;;;;;;;40.88;19.13;;;;;;;3.65;85.48;98698.88;5070626;28;20561;-71
2020/12/26 05:49:28;;;;;;;50.35;18.98;;;;;;;3.63;85.88;98706.25;5071456;28;20032;-71
2020/12/26 05:51:57;;;;;;;56.58;21.48;;;;;;;3.59;85.95;98691.09;5070255;28;20145;-71
2020/12/26 05:54:24;;;;;;;60.92;23.00;;;;;;;3.59;86.21;98699.84;5071243;28;20024;-71
2020/12/26 05:56:49;;;;;;;63.13;24.17;;;;;;;3.60;85.94;98690.06;5070146;28;20021;-71
2020/12/26 05:59:25;;;;;;;64.55;26.25;;;;;;;3.64;86.26;98701.78;5070847;28;20034;-71
2020/12/26 06:01:51;;;;;;;75.95;29.50;;;;;;;3.62;86.29;98699.34;5070070;28;20036;-71
2020/12/26 06:04:19;;;;;;;62.85;27.00;;;;;;;3.71;86.53;98693.69;5069765;28;20154;-71
2020/12/26 06:06:49;;;;;;;;;;;;;;;3.72;85.93;98696.06;5070509;28;20471;-71
2020/12/26 06:09:17;;;;;;;73.43;25.65;;;;;;;3.69;85.65;98686.00;5071064;28;19915;-71
2020/12/26 06:11:43;;;;;;;72.07;26.08;;;;;;;3.54;85.85;98665.38;5069966;28;20169;-71
2020/12/26 06:14:11;;;;;;;65.07;26.05;;;;;;;3.65;86.11;98676.91;5070994;28;20029;-71
2020/12/26 06:16:41;;;;;;;126.43;33.83;;;;;;;3.65;85.79;98679.56;5069659;28;20028;-71
2020/12/26 06:19:12;;;;;;;102.22;31.73;;;;;;;3.63;86.33;98685.09;5069208;28;20025;-71
2020/12/26 06:21:38;;;;;;;75.43;30.05;;;;;;;3.61;86.63;98689.81;5070848;28;20125;-71
2020/12/26 06:24:04;;;;;;;121.63;34.08;;;;;;;3.61;86.46;98686.38;5071074;28;20059;-71
2020/12/26 06:26:35;;;;;;;69.50;33.35;;;;;;;3.61;86.85;98700.38;5070581;28;20454;-71
2020/12/26 06:29:02;;;;;;;105.85;36.33;;;;;;;3.61;86.79;98691.66;5069723;28;20622;-71
2020/12/26 06:31:29;;;;;;;96.68;40.00;;;;;;;3.65;86.73;98695.41;5069625;28;20119;-72
2020/12/26 06:33:55;;;;;;;102.57;36.95;;;;;;;3.57;86.47;98680.75;5070858;28;20044;-72
2020/12/26 06:36:21;;;;;;;100.68;37.90;;;;;;;3.65;87.26;98706.81;5069124;28;20029;-72
2020/12/26 06:38:46;;;;;;;105.30;41.80;;;;;;;3.69;86.55;98709.78;5069558;28;20028;-71
2020/12/26 06:41:16;;;;;;;100.53;36.42;;;;;;;3.68;86.68;98692.31;5070397;28;20033;-72
2020/12/26 06:43:46;;;;;;;81.00;31.48;;;;;;;3.66;87.18;98695.19;5070984;28;20079;-72
2020/12/26 06:46:14;;;;;;;70.90;30.77;;;;;;;3.68;87.20;98698.41;5070673;28;20459;-72
2020/12/26 06:48:41;;;;;;;79.43;34.13;;;;;;;3.66;86.75;98695.19;5069574;28;20050;-72
2020/12/26 06:51:25;;;;;;;92.88;33.88;;;;;;;3.71;87.23;98688.38;5069660;28;20194;-72
2020/12/26 06:53:52;;;;;;;94.30;35.70;;;;;;;3.70;87.40;98684.94;5069519;28;20020;-72
2020/12/26 06:56:36;;;;;;;87.90;34.30;;;;;;;3.76;87.12;98691.94;5069200;28;20461;-72
2020/12/26 06:59:09;;;;;;;78.78;32.95;;;;;;;3.72;87.28;98677.56;5070326;28;20551;-72
2020/12/26 07:01:45;;;;;;;113.35;36.75;;;;;;;3.77;87.09;98674.19;5070826;28;20499;-72
2020/12/26 07:04:15;;;;;;;87.10;34.03;;;;;;;3.87;87.50;98687.59;5070372;28;20290;-72
2020/12/26 07:06:43;;;;;;;88.95;35.92;;;;;;;3.91;87.58;98694.00;5070723;28;20021;-72
2020/12/26 07:09:11;;;;;;;85.50;37.92;;;;;;;3.99;87.39;98700.72;5069235;28;20056;-72
2020/12/26 07:11:56;;;;;;;104.95;44.20;;;;;;;4.07;87.26;98699.53;5069373;28;20033;-72
2020/12/26 07:14:28;;;;;;;112.38;48.33;;;;;;;4.13;87.26;98702.00;5069592;28;20041;-72
2020/12/26 07:16:53;;;;;;;104.70;46.28;;;;;;;4.20;87.49;98707.16;5070510;28;20020;-72
2020/12/26 07:19:32;;;;;;;92.43;42.45;;;;;;;4.27;87.19;98704.31;5068872;28;20031;-72
2020/12/26 07:22:13;;;;;;;113.90;46.20;;;;;;;4.32;87.10;98701.75;5069221;28;20461;-72
2020/12/26 07:24:56;;;;;;;113.50;47.70;;;;;;;4.40;87.25;98711.94;5070608;28;20081;-72
2020/12/26 07:27:32;;;;;;;118.35;52.45;;;;;;;4.40;87.07;98706.63;5070565;28;20026;-72
2020/12/26 07:30:10;;;;;;;112.90;53.53;;;;;;;4.53;86.85;98720.56;5069136;28;20115;-72
2020/12/26 07:32:39;;;;;;;122.97;42.70;;;;;;;4.54;86.36;98722.19;5068864;28;20043;-72
2020/12/26 07:35:19;;;;;;;;;;;;;;;4.58;86.06;98739.19;5070556;28;20037;-73
2020/12/26 07:38:06;;;;;;;75.60;33.42;;;;;;;4.51;86.79;98735.91;5070360;28;19978;-72
2020/12/26 07:40:43;;;;;;;44.42;20.52;;;;;;;4.51;86.92;98746.50;5068069;28;20040;-72
2020/12/26 07:43:11;;;;;;;47.67;19.73;;;;;;;4.36;86.52;98744.41;5069945;28;20450;-73
2020/12/26 07:45:39;;;;;;;38.95;18.70;;;;;;;4.43;86.07;98742.41;5069075;28;20055;-71
2020/12/26 07:48:05;;;;;;;46.45;21.20;;;;;;;4.43;86.89;98745.06;5070187;28;20407;-73
2020/12/26 07:50:34;;;;;;;81.22;18.92;;;;;;;4.43;86.20;98742.41;5073500;28;20043;-73
2020/12/26 07:53:03;;;;;;;72.00;17.45;;;;;;;4.37;85.95;98740.72;5073876;28;20024;-73
2020/12/26 07:55:29;;;;;;;80.28;18.02;;;;;;;4.30;85.97;98757.59;5073832;28;20087;-73
2020/12/26 07:58:02;;;;;;;34.22;17.05;;;;;;;4.26;86.52;98758.31;5074061;28;20032;-73
2020/12/26 08:00:30;;;;;;;40.08;17.08;;;;;;;4.28;86.57;98762.31;5073425;28;20032;-73
2020/12/26 08:02:59;;;;;;;44.38;17.85;;;;;;;4.20;86.47;98760.09;5073592;28;20031;-73
2020/12/26 08:05:30;;;;;;;55.55;16.67;;;;;;;4.20;87.01;98760.09;5072065;28;20040;-73
2020/12/26 08:07:56;;;;;;;45.47;18.55;;;;;;;4.22;86.91;98770.44;5074222;28;20387;-72
2020/12/26 08:10:22;;;;;;;44.40;20.80;;;;;;;4.28;87.25;98770.25;5073038;28;20108;-73
2020/12/26 08:12:49;;;;;;;51.22;17.95;;;;;;;4.25;87.11;98759.38;5073297;28;20037;-73
2020/12/26 08:15:21;;;;;;;56.75;18.15;;;;;;;4.28;86.55;98758.88;5073215;28;20055;-72
2020/12/26 08:17:51;;;;;;;41.85;17.05;;;;;;;4.22;87.08;98746.59;5073400;28;20532;-73
2020/12/26 08:20:19;;;;;;;51.47;18.67;;;;;;;4.29;87.15;98763.13;5071688;28;20036;-73
2020/12/26 08:22:45;;;;;;;84.90;20.40;;;;;;;4.29;87.19;98752.53;5072069;28;20032;-72
2020/12/26 08:25:12;;;;;;;44.33;18.40;;;;;;;4.12;87.31;98728.72;5073004;28;20025;-72
2020/12/26 08:27:39;;;;;;;81.07;19.02;;;;;;;4.34;87.31;98765.84;5071693;28;20407;-73
2020/12/26 08:30:09;;;;;;;56.15;19.70;;;;;;;4.27;87.19;98763.38;5073412;28;20465;-71
2020/12/26 08:32:45;;;;;;;61.05;17.98;;;;;;;4.31;87.33;98761.84;5072888;28;20052;-71
2020/12/26 08:35:14;;;;;;;45.58;17.95;;;;;;;4.35;87.20;98759.50;5072950;28;20036;-73
2020/12/26 08:37:41;;;;;;;;;;;;;;;4.43;87.27;98772.34;5073380;28;20031;-71
2020/12/26 08:40:14;;;;;;;46.17;18.23;;;;;;;4.40;87.39;98769.38;5072918;28;19912;-73
2020/12/26 08:42:39;;;;;;;50.63;18.98;;;;;;;4.44;87.83;98765.19;5071069;28;20017;-72
2020/12/26 08:45:43;;;;;;;61.30;16.88;;;;;;;4.57;87.00;98772.03;5071634;28;20031;-72
2020/12/26 08:48:18;;;;;;;54.83;19.60;;;;;;;4.61;87.31;98767.81;5010380;28;20429;-73
2020/12/26 08:51:00;;;;;;;48.25;19.13;;;;;;;4.62;86.71;98766.78;5010781;28;20520;-73
2020/12/26 08:53:26;;;;;;;56.70;20.95;;;;;;;4.67;86.87;98769.50;5048873;28;20033;-72
2020/12/26 08:55:53;;;;;;;65.47;19.67;;;;;;;4.73;86.84;98773.03;5071340;28;20475;-71
2020/12/26 08:58:25;;;;;;;43.78;18.98;;;;;;;4.77;87.21;98759.06;5072313;28;20028;-72
2020/12/26 09:00:52;;;;;;;59.20;21.15;;;;;;;4.84;87.16;98760.72;5072247;28;20029;-71
2020/12/26 09:03:23;;;;;;;52.58;21.27;;;;;;;4.84;86.70;98756.22;5070967;28;20024;-71
2020/12/26 09:05:49;;;;;;;72.28;30.13;;;;;;;4.86;86.64;98740.88;5071123;28;20167;-71
2020/12/26 09:08:15;;;;;;;48.75;20.08;;;;;;;4.92;85.90;98752.34;5071096;28;20031;-72
2020/12/26 09:10:41;;;;;;;58.08;26.02;;;;;;;4.89;86.23;98740.38;5072204;28;20025;-72
2020/12/26 09:13:12;;;;;;;46.72;22.70;;;;;;;5.03;86.48;98738.19;5072385;28;20104;-71
2020/12/26 09:15:51;;;;;;;55.47;18.98;;;;;;;5.05;85.47;98740.56;5072098;28;20025;-71
2020/12/26 09:18:26;;;;;;;55.65;17.65;;;;;;;5.05;85.94;98729.97;5071165;28;20454;-71
2020/12/26 09:20:57;;;;;;;45.67;19.58;;;;;;;4.97;85.68;98723.28;5072018;28;20032;-71
2020/12/26 09:23:24;;;;;;;51.30;20.55;;;;;;;4.97;86.19;98734.66;5071948;28;20026;-71
2020/12/26 09:25:51;;;;;;;57.13;22.98;;;;;;;5.01;86.16;98731.53;5072064;28;20029;-71
2020/12/26 09:28:17;;;;;;;57.20;23.70;;;;;;;5.06;85.85;98748.28;5072022;28;20575;-71
2020/12/26 09:30:44;;;;;;;60.92;24.88;;;;;;;4.89;85.94;98713.88;5070584;28;20442;-71
2020/12/26 09:33:10;;;;;;;79.47;24.92;;;;;;;5.08;85.74;98743.53;5071316;28;20056;-71
2020/12/26 09:35:35;;;;;;;51.33;21.45;;;;;;;5.08;85.60;98738.22;5071986;28;20077;-71
2020/12/26 09:38:01;;;;;;;60.95;18.63;;;;;;;5.06;85.56;98720.97;5071861;28;20028;-71
2020/12/26 09:40:29;;;;;;;60.15;22.30;;;;;;;5.02;85.53;98723.31;5071370;28;20028;-71
2020/12/26 09:42:55;;;;;;;47.53;21.15;;;;;;;4.92;85.89;98715.22;5071777;28;20039;-71
2020/12/26 09:45:20;;;;;;;51.00;22.42;;;;;;;4.97;86.17;98732.00;5070221;28;20468;-71
2020/12/26 09:47:46;;;;;;;54.63;19.95;;;;;;;4.92;86.55;98725.84;5071735;28;20039;-72
2020/12/26 09:50:12;;;;;;;48.17;18.38;;;;;;;4.94;86.87;98729.88;5070339;28;20043;-73
2020/12/26 09:52:38;;;;;;;40.08;17.88;;;;;;;4.97;87.20;98716.09;5070051;28;20055;-72
2020/12/26 09:55:08;;;;;;;38.03;16.42;;;;;;;4.97;87.78;98713.47;5070123;28;20040;-71
2020/12/26 09:57:33;;;;;;;34.00;16.85;;;;;;;5.01;87.54;98702.38;5069835;28;20040;-72
2020/12/26 09:59:59;;;;;;;45.85;17.92;;;;;;;5.07;87.35;98702.16;5070038;28;20037;-71
2020/12/26 10:02:25;;;;;;;33.95;15.82;;;;;;;5.09;87.39;98693.97;5086951;28;20101;-71
2020/12/26 10:04:50;;;;;;;42.17;16.60;;;;;;;5.08;87.39;98698.47;5070083;28;20028;-71
2020/12/26 10:07:18;;;;;;;47.17;16.98;;;;;;;5.15;87.42;98702.78;5086841;28;20032;-72
2020/12/26 10:09:44;;;;;;;41.25;16.83;;;;;;;5.12;87.54;98718.13;5071132;28;20024;-72
2020/12/26 10:12:09;;;;;;;42.45;18.15;;;;;;;5.13;87.42;98709.13;5070710;28;20537;-71
2020/12/26 10:14:34;;;;;;;48.50;17.25;;;;;;;5.06;87.35;98694.47;5071251;28;20024;-72
2020/12/26 10:17:00;;;;;;;38.70;16.98;;;;;;;5.10;87.58;98693.75;5070890;28;20403;-71
2020/12/26 10:19:25;;;;;;;41.17;18.20;;;;;;;5.13;87.24;98695.09;5070759;28;20060;-71
2020/12/26 10:21:52;;;;;;;63.80;19.52;;;;;;;5.12;87.48;98693.47;5069740;28;20029;-73
2020/12/26 10:24:17;;;;;;;54.83;18.75;;;;;;;5.03;87.81;98684.34;5069722;28;20047;-72
2020/12/26 10:26:43;;;;;;;58.15;19.13;;;;;;;5.09;87.83;98691.31;5070855;28;20476;-72
2020/12/26 10:29:08;;;;;;;45.70;19.70;;;;;;;5.08;87.81;98689.75;5071148;28;20117;-72
2020/12/26 10:31:33;;;;;;;45.58;19.73;;;;;;;5.07;87.68;98680.97;5069528;28;20029;-72
2020/12/26 10:33:59;;;;;;;46.97;18.52;;;;;;;5.00;88.16;98666.31;5069438;28;20048;-72
2020/12/26 10:36:24;;;;;;;66.28;20.67;;;;;;;5.07;88.20;98682.84;5069294;28;20033;-72
2020/12/26 10:38:49;;;;;;;48.72;18.48;;;;;;;5.07;88.31;98685.47;5071112;28;20100;-72
2020/12/26 10:41:15;;;;;;;55.10;20.42;;;;;;;5.05;88.14;98682.25;5069647;28;20036;-72
2020/12/26 10:43:40;;;;;;;66.00;21.33;;;;;;;5.12;88.48;98693.47;5070986;28;20158;-72
2020/12/26 10:46:06;;;;;;;66.18;22.00;;;;;;;5.08;89.00;98681.78;5069553;28;20488;-72
2020/12/26 10:48:31;;;;;;;54.53;21.00;;;;;;;5.20;89.53;98698.34;5070863;28;20122;-72
2020/12/26 10:50:56;;;;;;;59.78;22.15;;;;;;;5.11;89.54;98668.84;5069441;28;20036;-72
2020/12/26 10:53:22;;;;;;;55.38;20.63;;;;;;;5.25;89.58;98692.31;5071055;28;20107;-72
2020/12/26 10:55:47;;;;;;;51.53;18.40;;;;;;;5.21;89.44;98684.06;5070489;28;20501;-72
2020/12/26 10:58:13;;;;;;;48.15;19.88;;;;;;;5.31;89.17;98693.94;5070831;28;20537;-72
2020/12/26 11:00:38;;;;;;;72.68;20.80;;;;;;;5.33;89.35;98696.34;5085738;28;20039;-72
2020/12/26 11:03:03;;;;;;;47.15;19.88;;;;;;;5.44;89.46;98696.22;5069374;28;20037;-72
2020/12/26 11:05:29;;;;;;;49.05;16.50;;;;;;;5.42;89.40;98681.56;5070199;28;20078;-72
2020/12/26 11:07:54;;;;;;;45.38;15.65;;;;;;;5.50;89.48;98691.72;5069382;28;20029;-72
2020/12/26 11:10:19;;;;;;;41.03;17.98;;;;;;;5.54;89.43;98705.28;5070628;28;20036;-72
2020/12/26 11:12:45;;;;;;;40.70;17.60;;;;;;;5.58;89.61;98693.94;5069173;28;20037;-72
2020/12/26 11:15:10;;;;;;;69.63;18.30;;;;;;;5.54;89.67;98689.38;5070256;28;20078;-72
2020/12/26 11:17:36;;;;;;;45.42;17.83;;;;;;;5.64;89.85;98691.31;5068988;28;20039;-72
2020/12/26 11:20:01;;;;;;;54.50;17.60;;;;;;;5.67;89.04;98682.88;5070509;28;20040;-72
2020/12/26 11:22:27;;;;;;;56.08;18.65;;;;;;;5.61;89.39;98663.44;5070344;28;20032;-71
2020/12/26 11:24:52;;;;;;;50.47;19.25;;;;;;;5.69;89.16;98678.09;5072233;28;20024;-72
2020/12/26 11:27:17;;;;;;;43.92;18.35;;;;;;;5.68;89.56;98673.88;5074098;28;20040;-72